createdAt,value
2023-10-04T00:00:17.629Z,100062.98
2023-10-04T00:03:07.191Z,100071.58
2023-10-04T00:05:38.325Z,100071.89
2023-10-04T00:08:07.300Z,100062.76
2023-10-04T00:10:35.757Z,100055.17
2023-10-04T00:13:04.317Z,100050.75
2023-10-04T00:15:32.863Z,100042.95
2023-10-04T00:18:01.386Z,100035.57
2023-10-04T00:20:33.804Z,100043.59
2023-10-04T00:23:06.081Z,100056.33
2023-10-04T00:25:35.166Z,100058.59
2023-10-04T00:28:04.395Z,100068.67
2023-10-04T00:30:33.854Z,100070.52
2023-10-04T00:33:06.590Z,100056.17
2023-10-04T00:35:34.847Z,100091.16
2023-10-04T00:38:03.071Z,100096.92
2023-10-04T00:40:33.175Z,100106.30
2023-10-04T00:43:03.245Z,100122.50
2023-10-04T00:45:34.251Z,100139.24
2023-10-04T00:48:11.817Z,100146.04
2023-10-04T00:50:41.206Z,100159.84
2023-10-04T00:53:12.432Z,100173.29
2023-10-04T00:55:42.334Z,100183.11
2023-10-04T00:58:12.294Z,100181.98
2023-10-04T01:00:45.097Z,100184.34
2023-10-04T01:03:16.164Z,100184.74
2023-10-04T01:05:52.604Z,100192.54
2023-10-04T01:08:23.909Z,100195.33
2023-10-04T01:10:54.889Z,100206.39
2023-10-04T01:13:23.958Z,100210.66
2023-10-04T01:16:00.483Z,100214.92
2023-10-04T01:18:31.824Z,100226.96
2023-10-04T01:21:00.809Z,100239.40
2023-10-04T01:23:30.297Z,100245.52
2023-10-04T01:25:58.542Z,100253.52
2023-10-04T01:28:29.819Z,100253.34
2023-10-04T01:31:01.058Z,100250.61
2023-10-04T01:33:32.654Z,100247.69
2023-10-04T01:36:01.180Z,100243.14
2023-10-04T01:38:30.674Z,100255.35
2023-10-04T01:41:00.072Z,100264.74
2023-10-04T01:43:28.859Z,100271.59
2023-10-04T01:46:01.769Z,100290.03
2023-10-04T01:48:37.988Z,100302.41
2023-10-04T01:51:07.703Z,100304.88
2023-10-04T01:53:36.598Z,100314.10
2023-10-04T01:56:09.059Z,100317.23
2023-10-04T01:58:38.914Z,100315.67
2023-10-04T02:01:07.858Z,100320.38
2023-10-04T02:03:36.293Z,100326.84
2023-10-04T02:06:06.278Z,100352.78
2023-10-04T02:08:35.141Z,100353.99
2023-10-04T02:11:05.797Z,100358.80
2023-10-04T02:13:38.972Z,100365.79
2023-10-04T02:16:17.684Z,100372.60
2023-10-04T02:18:46.120Z,100376.46
2023-10-04T02:21:14.949Z,100381.68
2023-10-04T02:23:43.493Z,100384.27
2023-10-04T02:26:11.597Z,100389.20
2023-10-04T02:28:41.235Z,100390.48
2023-10-04T02:31:09.266Z,100396.80
2023-10-04T02:33:40.042Z,100400.56
2023-10-04T02:36:09.042Z,100413.16
2023-10-04T02:38:37.832Z,100418.81
2023-10-04T02:41:07.412Z,100422.64
2023-10-04T02:43:36.728Z,100423.90
2023-10-04T02:46:05.276Z,100433.86
2023-10-04T02:48:36.018Z,100442.08
2023-10-04T02:51:05.777Z,100437.92
2023-10-04T02:53:34.202Z,100446.29
2023-10-04T02:56:08.101Z,100449.65
2023-10-04T02:58:41.230Z,100451.41
2023-10-04T03:01:12.647Z,100461.69
2023-10-04T03:03:41.047Z,100465.88
2023-10-04T03:06:09.178Z,100468.33
2023-10-04T03:08:37.389Z,100473.70
2023-10-04T03:11:06.024Z,100477.73
2023-10-04T03:13:36.179Z,100485.78
2023-10-04T03:16:05.689Z,100489.11
2023-10-04T03:18:38.650Z,100492.46
2023-10-04T03:21:11.932Z,100492.14
2023-10-04T03:23:42.985Z,100496.86
2023-10-04T03:26:21.625Z,100498.63
2023-10-04T03:28:53.102Z,100508.21
2023-10-04T03:31:24.564Z,100510.13
2023-10-04T03:33:57.136Z,100517.25
2023-10-04T03:36:27.785Z,100516.90
2023-10-04T03:38:59.696Z,100514.27
2023-10-04T03:41:29.166Z,100516.89
2023-10-04T03:44:04.322Z,100522.66
2023-10-04T03:46:33.230Z,100529.29
2023-10-04T03:49:03.955Z,100536.77
2023-10-04T03:51:32.864Z,100540.10
2023-10-04T03:54:08.896Z,100543.75
2023-10-04T03:56:42.044Z,100544.96
2023-10-04T03:59:12.114Z,100548.77
2023-10-04T04:02:55.911Z,100555.73
2023-10-04T04:05:24.956Z,100564.23
2023-10-04T04:07:53.685Z,100571.52
2023-10-04T04:10:23.245Z,100573.10
2023-10-04T04:12:52.202Z,100564.75
2023-10-04T04:15:20.684Z,100571.73
2023-10-04T04:17:49.787Z,100573.83
2023-10-04T04:20:19.281Z,100574.17
2023-10-04T04:22:54.869Z,100583.54
2023-10-04T04:25:25.407Z,100582.67
2023-10-04T04:27:55.990Z,100584.73
2023-10-04T04:34:35.414Z,100589.62
2023-10-04T04:37:04.364Z,100588.93
2023-10-04T04:39:32.768Z,100593.10
2023-10-04T04:42:01.896Z,100595.38
2023-10-04T04:44:39.658Z,100600.41
2023-10-04T04:47:07.902Z,100609.45
2023-10-04T04:49:36.108Z,100611.38
2023-10-04T04:52:07.276Z,100608.77
2023-10-04T04:54:35.391Z,100614.33
2023-10-04T04:57:05.953Z,100611.02
2023-10-04T04:59:34.938Z,100613.64
2023-10-04T05:02:03.312Z,100613.47
2023-10-04T05:04:32.160Z,100618.54
2023-10-04T05:07:02.930Z,100625.83
2023-10-04T05:09:31.042Z,100628.60
2023-10-04T05:11:59.776Z,100630.85
2023-10-04T05:14:27.850Z,100633.62
2023-10-04T05:16:55.935Z,100634.82
2023-10-04T05:19:24.207Z,100635.66
2023-10-04T05:21:52.291Z,100635.46
2023-10-04T05:24:20.424Z,100643.27
2023-10-04T05:26:48.720Z,100650.55
2023-10-04T05:29:16.757Z,100651.74
2023-10-04T05:31:44.768Z,100659.05
2023-10-04T05:34:13.489Z,100663.89
2023-10-04T05:36:41.854Z,100667.18
2023-10-04T05:39:12.779Z,100670.83
2023-10-04T05:41:40.900Z,100676.02
2023-10-04T05:44:10.092Z,100686.60
2023-10-04T05:46:45.726Z,100697.38
2023-10-04T05:49:14.042Z,100696.52
2023-10-04T05:51:42.427Z,100696.50
2023-10-04T05:54:11.967Z,100698.05
2023-10-04T05:56:41.442Z,100705.70
2023-10-04T05:59:12.234Z,100708.13
2023-10-04T06:01:40.873Z,100712.66
2023-10-04T06:04:12.259Z,100720.99
2023-10-04T06:06:45.938Z,100724.29
2023-10-04T06:09:27.958Z,100725.66
2023-10-04T06:11:57.661Z,100729.48
2023-10-04T06:14:28.475Z,100730.48
2023-10-04T06:16:57.928Z,100732.34
2023-10-04T06:19:30.789Z,100738.23
2023-10-04T06:22:00.215Z,100743.23
2023-10-04T06:24:29.299Z,100752.27
2023-10-04T06:26:57.690Z,100755.89
2023-10-04T06:29:27.636Z,100756.92
2023-10-04T06:31:55.922Z,100759.14
2023-10-04T06:34:24.316Z,100761.20
2023-10-04T06:36:52.923Z,100764.12
2023-10-04T06:39:21.303Z,100760.23
2023-10-04T06:41:50.295Z,100761.90
2023-10-04T06:44:20.033Z,100766.16
2023-10-04T06:46:48.491Z,100763.17
2023-10-04T06:49:16.940Z,100769.64
2023-10-04T06:51:45.102Z,100770.08
2023-10-04T06:54:13.269Z,100775.36
2023-10-04T06:56:41.539Z,100782.38
2023-10-04T06:59:10.566Z,100777.20
2023-10-04T07:01:38.999Z,100784.79
2023-10-04T07:04:07.534Z,100785.12
2023-10-04T07:06:36.109Z,100784.39
2023-10-04T07:09:06.263Z,100795.00
2023-10-04T07:11:34.907Z,100796.04
2023-10-04T07:14:08.616Z,100796.56
2023-10-04T07:16:40.045Z,100798.07
2023-10-04T07:19:08.602Z,100795.23
2023-10-04T07:21:37.170Z,100795.04
2023-10-04T07:24:07.561Z,100804.52
2023-10-04T07:26:37.730Z,100803.55
2023-10-04T07:29:06.249Z,100804.23
2023-10-04T07:31:38.136Z,100805.30
2023-10-04T07:34:07.834Z,100805.66
2023-10-04T07:36:37.605Z,100808.70
2023-10-04T07:39:05.888Z,100802.70
2023-10-04T07:41:34.205Z,100806.80
2023-10-04T07:44:03.170Z,100807.50
2023-10-04T07:46:32.597Z,100809.83
2023-10-04T07:49:02.636Z,100813.14
2023-10-04T07:51:30.907Z,100820.11
2023-10-04T07:53:59.154Z,100817.53
2023-10-04T07:56:28.269Z,100817.31
2023-10-04T07:58:56.592Z,100826.59
2023-10-04T08:01:24.628Z,100830.86
2023-10-04T08:03:54.204Z,100835.66
2023-10-04T08:06:22.825Z,100836.98
2023-10-04T08:08:51.088Z,100839.98
2023-10-04T08:11:19.371Z,100846.98
2023-10-04T08:13:48.085Z,100851.87
2023-10-04T08:16:16.753Z,100851.95
2023-10-04T08:18:45.080Z,100853.67
2023-10-04T08:21:13.474Z,100858.25
2023-10-04T08:23:41.771Z,100861.57
2023-10-04T08:26:16.887Z,100866.78
2023-10-04T08:28:45.095Z,100865.50
2023-10-04T08:31:15.197Z,100873.34
2023-10-04T08:33:46.665Z,100880.66
2023-10-04T08:36:18.922Z,100883.59
2023-10-04T08:38:47.467Z,100888.30
2023-10-04T08:41:17.854Z,100889.44
2023-10-04T08:43:46.703Z,100894.23
2023-10-04T08:46:19.324Z,100895.97
2023-10-04T08:48:55.431Z,100897.27
2023-10-04T08:51:44.415Z,100898.65
2023-10-04T08:54:15.155Z,100896.63
2023-10-04T08:56:53.643Z,100900.42
2023-10-04T08:59:23.690Z,100901.31
2023-10-04T09:01:54.444Z,100908.13
2023-10-04T09:04:25.659Z,100902.98
2023-10-04T09:06:54.414Z,100907.71
2023-10-04T09:09:24.141Z,100908.63
2023-10-04T09:11:52.467Z,100912.85
2023-10-04T09:14:22.221Z,100911.17
2023-10-04T09:17:15.590Z,100912.05
2023-10-04T09:19:46.630Z,100916.77
2023-10-04T09:22:18.983Z,100920.20
2023-10-04T09:24:58.083Z,100911.58
2023-10-04T09:27:29.236Z,100908.27
2023-10-04T09:29:59.895Z,100910.66
2023-10-04T09:32:42.071Z,100907.15
2023-10-04T09:35:13.535Z,100910.53
2023-10-04T09:37:45.550Z,100911.85
2023-10-04T09:40:17.644Z,100906.02
2023-10-04T09:42:47.358Z,100907.39
2023-10-04T09:45:17.374Z,100905.75
2023-10-04T09:47:48.366Z,100910.95
2023-10-04T09:50:25.804Z,100914.44
2023-10-04T09:52:54.897Z,100912.15
2023-10-04T09:55:26.800Z,100912.95
2023-10-04T09:57:57.007Z,100920.48
2023-10-04T10:00:27.248Z,100920.99
2023-10-04T10:02:59.095Z,100922.56
2023-10-04T10:05:33.391Z,100922.41
2023-10-04T10:08:07.887Z,100918.46
2023-10-04T10:10:42.512Z,100918.64
2023-10-04T10:13:11.016Z,100921.23
2023-10-04T10:15:41.849Z,100917.91
2023-10-04T10:18:12.566Z,100922.06
2023-10-04T10:20:42.856Z,100923.21
2023-10-04T10:23:14.616Z,100921.26
2023-10-04T10:26:19.801Z,100925.75
2023-10-04T10:28:49.102Z,100923.52
2023-10-04T10:31:21.892Z,100922.98
2023-10-04T10:33:51.804Z,100926.54
2023-10-04T10:36:26.968Z,100924.18
2023-10-04T10:38:58.338Z,100923.56
2023-10-04T10:41:29.233Z,100920.23
2023-10-04T10:44:13.235Z,100918.83
2023-10-04T10:47:18.989Z,100922.61
2023-10-04T10:49:57.427Z,100927.79
2023-10-04T10:53:04.091Z,100928.96
2023-10-04T10:55:36.974Z,100918.82
2023-10-04T10:58:06.393Z,100912.78
2023-10-04T11:04:37.240Z,100928.67
2023-10-04T11:07:09.364Z,100927.16
2023-10-04T11:09:45.892Z,100930.70
2023-10-04T11:12:20.575Z,100930.67
2023-10-04T11:15:19.233Z,100932.80
2023-10-04T11:17:48.438Z,100932.17
2023-10-04T11:20:19.562Z,100927.11
2023-10-04T11:22:50.260Z,100927.36
2023-10-04T11:25:19.774Z,100921.46
2023-10-04T11:27:51.783Z,100917.95
2023-10-04T11:30:24.217Z,100918.52
2023-10-04T11:32:53.717Z,100926.38
2023-10-04T11:35:22.131Z,100920.98
2023-10-04T11:37:51.109Z,100917.86
2023-10-04T11:40:21.782Z,100917.06
2023-10-04T11:43:00.345Z,100919.85
2023-10-04T11:45:29.949Z,100923.27
2023-10-04T11:48:03.610Z,100915.80
2023-10-04T11:50:50.484Z,100913.50
2023-10-04T11:53:32.793Z,100915.09
2023-10-04T11:56:01.669Z,100915.67
2023-10-04T11:58:32.314Z,100914.98
2023-10-04T12:01:08.072Z,100913.73
2023-10-04T12:03:37.807Z,100921.55
2023-10-04T12:06:06.700Z,100917.85
2023-10-04T12:08:37.185Z,100919.72
2023-10-04T12:11:36.657Z,100916.31
2023-10-04T12:14:06.930Z,100918.94
2023-10-04T12:16:42.207Z,100920.52
2023-10-04T12:19:11.021Z,100919.46
2023-10-04T12:21:39.364Z,100917.75
2023-10-04T12:24:10.353Z,100917.27
2023-10-04T12:26:38.557Z,100915.25
2023-10-04T12:29:08.969Z,100915.34
2023-10-04T12:31:37.379Z,100923.65
2023-10-04T12:34:06.902Z,100917.76
2023-10-04T12:36:54.449Z,100917.79
2023-10-04T12:39:24.653Z,100919.71
2023-10-04T12:41:53.712Z,100912.02
2023-10-04T12:44:22.507Z,100908.65
2023-10-04T12:46:50.660Z,100910.36
2023-10-04T12:49:21.706Z,100911.90
2023-10-04T12:51:50.016Z,100909.14
2023-10-04T12:54:20.487Z,100915.30
2023-10-04T12:56:52.758Z,100913.06
2023-10-04T12:59:25.030Z,100918.76
2023-10-04T13:01:54.913Z,100922.36
2023-10-04T13:04:23.368Z,100924.33
2023-10-04T13:06:51.818Z,100926.80
2023-10-04T13:09:21.258Z,100925.10
2023-10-04T13:11:50.017Z,100926.14
2023-10-04T13:14:18.199Z,100928.93
2023-10-04T13:16:47.344Z,100932.77
2023-10-04T13:19:15.939Z,100930.69
2023-10-04T13:21:44.079Z,100928.09
2023-10-04T13:24:12.228Z,100924.81
2023-10-04T13:26:40.383Z,100923.42
2023-10-04T13:29:10.515Z,100921.52
2023-10-04T13:31:38.570Z,100923.09
2023-10-04T13:34:08.505Z,100925.02
2023-10-04T13:36:36.596Z,100919.57
2023-10-04T13:39:05.308Z,100922.50
2023-10-04T13:41:33.596Z,100918.65
2023-10-04T13:44:01.590Z,100921.73
2023-10-04T13:46:29.725Z,100917.92
2023-10-04T13:48:59.504Z,100913.04
2023-10-04T13:51:28.890Z,100914.08
2023-10-04T13:53:57.072Z,100913.03
2023-10-04T13:56:25.185Z,100913.88
2023-10-04T13:58:54.011Z,100908.15
2023-10-04T14:01:23.749Z,100904.67
2023-10-04T14:03:53.160Z,100910.98
2023-10-04T14:06:22.631Z,100908.91
2023-10-04T14:08:52.819Z,100909.10
2023-10-04T14:11:20.819Z,100902.15
2023-10-04T14:13:52.581Z,100904.41
2023-10-04T14:16:21.141Z,100895.33
2023-10-04T14:18:49.895Z,100895.23
2023-10-04T14:21:17.944Z,100887.08
2023-10-04T14:23:46.531Z,100885.73
2023-10-04T14:26:14.670Z,100884.98
2023-10-04T14:28:43.100Z,100887.64
2023-10-04T14:31:12.879Z,100888.02
2023-10-04T14:33:42.314Z,100881.63
2023-10-04T14:36:11.629Z,100885.10
2023-10-04T14:38:39.724Z,100891.88
2023-10-04T14:41:07.702Z,100895.70
2023-10-04T14:43:37.157Z,100895.33
2023-10-04T14:46:06.321Z,100890.83
2023-10-04T14:48:35.255Z,100893.89
2023-10-04T14:53:34.976Z,100892.20
2023-10-04T14:56:05.829Z,100901.95
2023-10-04T14:58:35.343Z,100905.77
2023-10-04T15:01:09.302Z,100906.20
2023-10-04T15:03:38.109Z,100910.60
2023-10-04T15:06:06.413Z,100906.45
2023-10-04T15:08:35.104Z,100905.45
2023-10-04T15:11:05.388Z,100905.67
2023-10-04T15:13:33.559Z,100909.92
2023-10-04T15:16:10.877Z,100909.11
2023-10-04T15:18:39.858Z,100914.18
2023-10-04T15:21:08.688Z,100920.66
2023-10-04T15:23:39.969Z,100924.50
2023-10-04T15:26:11.438Z,100924.69
2023-10-04T15:28:45.508Z,100925.55
2023-10-04T15:31:16.313Z,100925.03
2023-10-04T15:33:46.940Z,100929.05
2023-10-04T15:36:18.458Z,100930.79
2023-10-04T15:38:48.306Z,100936.34
2023-10-04T15:41:18.840Z,100936.17
2023-10-04T15:43:48.654Z,100932.35
2023-10-04T15:46:16.948Z,100934.43
2023-10-04T15:48:45.768Z,100933.60
2023-10-04T15:51:13.804Z,100935.39
2023-10-04T15:53:42.171Z,100938.36
2023-10-04T15:56:10.651Z,100932.64
2023-10-04T15:58:38.632Z,100935.79
2023-10-04T16:01:06.693Z,100935.62
2023-10-04T16:03:36.626Z,100941.40
2023-10-04T16:06:05.098Z,100937.57
2023-10-04T16:08:33.856Z,100943.36
2023-10-04T16:11:02.331Z,100943.56
2023-10-04T16:13:30.686Z,100944.13
2023-10-04T16:15:59.016Z,100948.68
2023-10-04T16:18:30.391Z,100953.59
2023-10-04T16:20:59.035Z,100960.94
2023-10-04T16:23:29.813Z,100958.70
2023-10-04T16:25:57.911Z,100962.02
2023-10-04T16:28:26.233Z,100960.84
2023-10-04T16:30:54.381Z,100958.23
2023-10-04T16:33:22.986Z,100962.08
2023-10-04T16:35:51.112Z,100965.41
2023-10-04T16:38:19.091Z,100967.51
2023-10-04T16:40:47.225Z,100970.48
2023-10-04T16:43:15.467Z,100968.95
2023-10-04T16:45:43.732Z,100972.60
2023-10-04T16:48:12.192Z,100975.57
2023-10-04T16:50:41.407Z,100977.14
2023-10-04T16:53:09.490Z,100984.80
2023-10-04T16:55:38.338Z,100986.36
2023-10-04T16:58:07.728Z,100991.20
2023-10-04T17:00:36.609Z,100991.20
2023-10-04T17:03:05.475Z,100990.50
2023-10-04T17:05:33.662Z,100989.10
2023-10-04T17:08:02.577Z,100991.69
2023-10-04T17:10:30.840Z,100992.73
2023-10-04T17:12:59.596Z,100993.77
2023-10-04T17:15:27.885Z,100993.94
2023-10-04T17:17:56.384Z,100989.92
2023-10-04T17:20:24.610Z,100991.30
2023-10-04T17:22:52.787Z,100992.34
2023-10-04T17:25:20.858Z,100994.23
2023-10-04T17:27:50.179Z,100999.25
2023-10-04T17:30:18.654Z,100996.11
2023-10-04T17:32:47.846Z,101001.67
2023-10-04T17:35:18.704Z,101001.48
2023-10-04T17:37:47.179Z,101003.04
2023-10-04T17:40:16.301Z,101003.38
2023-10-04T17:42:46.268Z,101005.78
2023-10-04T17:45:15.085Z,101007.50
2023-10-04T17:47:43.475Z,101008.86
2023-10-04T17:50:11.914Z,101009.53
2023-10-04T17:52:40.548Z,101006.92
2023-10-04T17:55:09.847Z,101003.09
2023-10-04T17:57:41.184Z,101000.30
2023-10-04T18:00:13.988Z,101002.90
2023-10-04T18:02:43.252Z,101003.76
2023-10-04T18:05:15.185Z,101006.19
2023-10-04T18:07:43.718Z,101006.69
2023-10-04T18:10:12.118Z,101005.65
2023-10-04T18:12:42.429Z,101005.63
2023-10-04T18:15:13.351Z,101010.30
2023-10-04T18:17:42.704Z,101011.52
2023-10-04T18:20:12.079Z,101013.77
2023-10-04T18:22:41.090Z,101014.45
2023-10-04T18:25:10.344Z,101013.77
2023-10-04T18:27:39.146Z,101013.77
2023-10-04T18:30:11.706Z,101016.73
2023-10-04T18:32:40.360Z,101018.45
2023-10-04T18:35:09.804Z,101023.33
2023-10-04T18:37:38.246Z,101018.14
2023-10-04T18:40:09.225Z,101017.09
2023-10-04T18:42:38.827Z,101019.70
2023-10-04T18:45:11.450Z,101023.52
2023-10-04T18:47:41.366Z,101021.96
2023-10-04T18:50:11.189Z,101019.89
2023-10-04T18:52:39.959Z,101017.82
2023-10-04T18:55:11.032Z,101018.67
2023-10-04T18:57:42.277Z,101014.67
2023-10-04T19:04:40.133Z,101016.60
2023-10-04T19:07:14.518Z,101021.45
2023-10-04T19:09:42.528Z,101024.23
2023-10-04T19:12:10.531Z,101024.38
2023-10-04T19:14:39.333Z,101024.55
2023-10-04T19:17:08.992Z,101025.77
2023-10-04T19:19:37.051Z,101028.89
2023-10-04T19:22:05.255Z,101026.81
2023-10-04T19:24:34.306Z,101026.81
2023-10-04T19:27:04.147Z,101033.23
2023-10-04T19:29:33.056Z,101030.98
2023-10-04T19:32:01.125Z,101031.14
2023-10-04T19:34:29.586Z,101035.12
2023-10-04T19:36:57.731Z,101035.80
2023-10-04T19:39:25.880Z,101035.10
2023-10-04T19:41:53.905Z,101037.36
2023-10-04T19:44:22.059Z,101034.92
2023-10-04T19:46:50.337Z,101029.19
2023-10-04T19:49:18.533Z,101031.79
2023-10-04T19:51:47.581Z,101032.14
2023-10-04T19:54:15.691Z,101030.77
2023-10-04T19:56:45.604Z,101031.10
2023-10-04T19:59:13.789Z,101026.23
2023-10-04T20:01:42.554Z,101022.23
2023-10-04T20:04:12.727Z,101021.70
2023-10-04T20:06:41.057Z,101021.02
2023-10-04T20:09:13.050Z,101022.21
2023-10-04T20:11:41.852Z,101025.33
2023-10-04T20:14:10.008Z,101026.19
2023-10-04T20:16:38.390Z,101023.41
2023-10-04T20:19:06.413Z,101024.42
2023-10-04T20:21:34.554Z,101028.23
2023-10-04T20:24:04.870Z,101027.20
2023-10-04T20:26:33.410Z,101029.94
2023-10-04T20:29:01.787Z,101031.83
2023-10-04T20:31:30.315Z,101031.64
2023-10-04T20:33:59.780Z,101030.04
2023-10-04T20:36:27.951Z,101027.24
2023-10-04T20:38:57.478Z,101030.03
2023-10-04T20:41:25.614Z,101029.83
2023-10-04T20:43:54.015Z,101029.28
2023-10-04T20:46:22.430Z,101021.29
2023-10-04T20:48:50.635Z,101019.89
2023-10-04T20:51:19.463Z,101024.39
2023-10-04T20:53:47.475Z,101028.52
2023-10-04T20:56:15.597Z,101032.50
2023-10-04T20:58:43.695Z,101031.97
2023-10-04T21:01:13.014Z,101034.91
2023-10-04T21:03:41.416Z,101033.49
2023-10-04T21:06:11.548Z,101028.30
2023-10-04T21:08:40.405Z,101034.52
2023-10-04T21:11:09.241Z,101035.21
2023-10-04T21:13:37.363Z,101038.66
2023-10-04T21:16:05.742Z,101040.20
2023-10-04T21:18:34.500Z,101038.97
2023-10-04T21:21:02.716Z,101035.65
2023-10-04T21:23:31.786Z,101043.10
2023-10-04T21:26:00.515Z,101040.67
2023-10-04T21:28:30.835Z,101043.95
2023-10-04T21:30:59.254Z,101043.05
2023-10-04T21:33:29.549Z,101042.31
2023-10-04T21:36:11.286Z,101042.30
2023-10-04T21:38:44.806Z,101047.45
2023-10-04T21:41:13.143Z,101047.44
2023-10-04T21:43:42.027Z,101049.15
2023-10-04T21:46:12.189Z,101044.09
2023-10-04T21:48:43.659Z,101036.61
2023-10-04T21:51:26.242Z,101036.60
2023-10-04T21:53:54.229Z,101036.77
2023-10-04T21:56:22.307Z,101033.45
2023-10-04T21:58:50.268Z,101038.29
2023-10-04T22:01:19.636Z,101036.33
2023-10-04T22:03:49.980Z,101031.77
2023-10-04T22:06:18.768Z,101028.92
2023-10-04T22:08:48.865Z,101033.18
2023-10-04T22:11:17.053Z,101035.57
2023-10-04T22:13:45.421Z,101032.09
2023-10-04T22:16:15.617Z,101030.33
2023-10-04T22:18:44.036Z,101025.59
2023-10-04T22:21:12.524Z,101026.55
2023-10-04T22:23:40.778Z,101026.34
2023-10-04T22:26:09.221Z,101028.39
2023-10-04T22:28:37.366Z,101031.81
2023-10-04T22:31:05.884Z,101027.59
2023-10-04T22:33:35.579Z,101028.95
2023-10-04T22:36:04.014Z,101028.20
2023-10-04T22:38:32.132Z,101022.45
2023-10-04T22:41:02.043Z,101022.59
2023-10-04T22:43:30.122Z,101021.14
2023-10-04T22:45:58.677Z,101019.90
2023-10-04T22:48:26.816Z,101021.58
2023-10-04T22:50:55.114Z,101022.77
2023-10-04T22:53:23.275Z,101020.32
2023-10-04T22:55:54.408Z,101016.33
2023-10-04T22:58:25.675Z,101018.23
2023-10-04T23:00:57.825Z,101011.30
2023-10-04T23:03:34.198Z,101007.98
2023-10-04T23:06:13.965Z,101011.77
2023-10-04T23:08:42.044Z,101005.01
2023-10-04T23:11:11.963Z,101006.59
2023-10-04T23:13:44.629Z,101009.17
2023-10-04T23:16:15.541Z,101003.63
2023-10-04T23:18:46.998Z,101006.55
2023-10-04T23:21:22.739Z,101007.71
2023-10-04T23:24:04.787Z,101008.05
2023-10-04T23:26:33.402Z,101004.44
2023-10-04T23:29:06.448Z,101003.92
2023-10-04T23:31:38.697Z,100999.59
2023-10-04T23:34:10.242Z,100997.52
2023-10-04T23:36:42.041Z,101002.02
2023-10-04T23:39:11.010Z,101001.46
2023-10-04T23:41:43.860Z,101002.15
2023-10-04T23:44:13.720Z,101004.06
2023-10-04T23:46:42.098Z,100998.00
2023-10-04T23:49:20.583Z,100995.74
2023-10-04T23:51:50.688Z,100987.29
2023-10-04T23:54:23.828Z,100988.33
2023-10-04T23:56:54.757Z,100982.08
2023-10-04T23:59:24.373Z,100983.30
